createdAt,value
2023-05-02T00:00:36.552Z,2.90
2023-05-02T00:03:24.313Z,2.90
2023-05-02T00:06:11.960Z,3.22
2023-05-02T00:08:59.757Z,2.70
2023-05-02T00:11:47.638Z,2.95
2023-05-02T00:14:35.233Z,2.60
2023-05-02T00:17:22.473Z,3.00
2023-05-02T00:20:11.918Z,4.78
2023-05-02T00:22:59.414Z,7.12
2023-05-02T00:25:47.167Z,4.40
2023-05-02T00:28:34.387Z,4.28
2023-05-02T00:31:22.089Z,3.95
2023-05-02T00:34:09.751Z,6.15
2023-05-02T00:36:56.996Z,6.05
2023-05-02T00:39:45.045Z,5.70
2023-05-02T00:42:35.991Z,5.62
2023-05-02T00:45:23.412Z,5.40
2023-05-02T00:48:12.017Z,6.33
2023-05-02T00:51:00.567Z,6.62
2023-05-02T00:53:47.785Z,6.28
2023-05-02T00:56:35.284Z,6.58
2023-05-02T00:59:22.549Z,5.60
2023-05-02T01:02:29.618Z,5.70
2023-05-02T01:05:26.326Z,5.90
2023-05-02T01:08:22.589Z,5.78
2023-05-02T01:11:21.833Z,5.67
2023-05-02T01:14:12.318Z,5.37
2023-05-02T01:17:04.123Z,8.20
2023-05-02T01:19:57.780Z,6.58
2023-05-02T01:22:45.648Z,8.45
2023-05-02T01:25:39.038Z,6.83
2023-05-02T01:28:59.721Z,6.20
2023-05-02T01:31:50.507Z,6.72
2023-05-02T01:34:41.039Z,7.97
2023-05-02T01:37:30.534Z,7.08
2023-05-02T01:40:22.402Z,11.80
2023-05-02T01:43:10.058Z,12.53
2023-05-02T01:45:59.841Z,13.20
2023-05-02T01:48:49.447Z,13.00
2023-05-02T01:51:40.076Z,12.70
2023-05-02T01:54:29.886Z,11.78
2023-05-02T01:57:18.604Z,12.10
2023-05-02T02:00:06.863Z,12.93
2023-05-02T02:02:56.632Z,13.18
2023-05-02T02:05:44.385Z,13.85
2023-05-02T02:08:31.470Z,13.45
2023-05-02T02:11:20.978Z,13.43
2023-05-02T02:14:11.403Z,14.58
2023-05-02T02:17:01.816Z,13.35
2023-05-02T02:19:51.380Z,13.93
2023-05-02T02:22:41.846Z,15.03
2023-05-02T02:25:29.478Z,14.87
2023-05-02T02:28:17.049Z,15.65
2023-05-02T02:31:04.420Z,14.68
2023-05-02T02:33:52.194Z,15.80
2023-05-02T02:37:00.964Z,14.73
2023-05-02T02:39:51.452Z,15.45
2023-05-02T02:43:06.252Z,14.38
2023-05-02T02:45:59.494Z,15.13
2023-05-02T02:49:12.571Z,14.78
2023-05-02T02:52:27.720Z,11.97
2023-05-02T02:55:24.083Z,13.78
2023-05-02T02:58:38.873Z,15.15
2023-05-02T03:01:28.792Z,15.28
2023-05-02T03:04:18.472Z,16.73
2023-05-02T03:07:05.549Z,17.12
2023-05-02T03:09:52.802Z,16.70
2023-05-02T03:12:43.550Z,17.05
2023-05-02T03:15:33.847Z,16.97
2023-05-02T03:18:21.447Z,18.60
2023-05-02T03:21:09.106Z,16.87
2023-05-02T03:23:56.596Z,17.87
2023-05-02T03:26:43.820Z,17.92
2023-05-02T03:29:31.238Z,18.82
2023-05-02T03:32:18.548Z,18.67
2023-05-02T03:35:06.478Z,19.32
2023-05-02T03:37:54.097Z,20.75
2023-05-02T03:40:44.650Z,20.65
2023-05-02T03:43:32.288Z,21.35
2023-05-02T03:46:19.577Z,21.37
2023-05-02T03:49:07.022Z,21.25
2023-05-02T03:51:54.291Z,21.50
2023-05-02T03:54:43.806Z,20.62
2023-05-02T03:57:34.176Z,21.90
2023-05-02T04:00:21.644Z,21.02
2023-05-02T04:03:12.325Z,20.57
2023-05-02T04:05:59.714Z,19.40
2023-05-02T04:08:47.252Z,20.57
2023-05-02T04:11:35.406Z,20.60
2023-05-02T04:14:22.443Z,18.75
2023-05-02T04:17:10.199Z,19.00
2023-05-02T04:19:58.190Z,20.40
2023-05-02T04:22:47.347Z,19.73
2023-05-02T04:25:34.708Z,16.20
2023-05-02T04:28:23.027Z,16.02
2023-05-02T04:31:10.288Z,15.90
2023-05-02T04:33:57.688Z,15.25
2023-05-02T04:36:50.013Z,17.48
2023-05-02T04:39:37.602Z,17.75
2023-05-02T04:42:25.561Z,18.30
2023-05-02T04:45:13.242Z,20.55
2023-05-02T04:48:00.622Z,21.85
2023-05-02T04:50:47.731Z,21.10
2023-05-02T04:53:36.462Z,21.33
2023-05-02T04:56:23.621Z,24.77
2023-05-02T04:59:11.241Z,25.68
2023-05-02T05:01:58.481Z,26.50
2023-05-02T05:04:46.061Z,25.40
2023-05-02T05:07:33.319Z,25.00
2023-05-02T05:10:20.640Z,23.67
2023-05-02T05:13:08.265Z,24.35
2023-05-02T05:15:55.570Z,23.83
2023-05-02T05:18:42.889Z,23.47
2023-05-02T05:21:31.001Z,23.05
2023-05-02T05:24:18.197Z,23.70
2023-05-02T05:27:06.053Z,22.55
2023-05-02T05:29:53.298Z,22.37
2023-05-02T05:32:40.802Z,24.75
2023-05-02T05:35:28.428Z,22.87
2023-05-02T05:38:15.746Z,22.65
2023-05-02T05:41:03.403Z,22.95
2023-05-02T05:43:50.804Z,23.40
2023-05-02T05:46:38.062Z,23.90
2023-05-02T05:49:25.180Z,23.60
2023-05-02T05:52:12.846Z,22.98
2023-05-02T05:55:01.813Z,23.20
2023-05-02T05:57:49.218Z,22.77
2023-05-02T06:00:37.300Z,20.97
2023-05-02T06:03:24.706Z,22.77
2023-05-02T06:06:12.023Z,22.90
2023-05-02T06:08:59.623Z,21.27
2023-05-02T06:11:47.270Z,21.27
2023-05-02T06:14:34.553Z,22.30
2023-05-02T06:17:22.173Z,20.88
2023-05-02T06:20:09.937Z,21.82
2023-05-02T06:23:00.006Z,21.62
2023-05-02T06:25:47.414Z,22.90
2023-05-02T06:28:34.946Z,21.65
2023-05-02T06:31:22.425Z,23.12
2023-05-02T06:34:11.389Z,21.15
2023-05-02T06:36:58.543Z,21.40
2023-05-02T06:39:46.035Z,20.55
2023-05-02T06:42:33.666Z,20.35
2023-05-02T06:45:20.757Z,19.48
2023-05-02T06:48:08.861Z,21.15
2023-05-02T06:50:55.985Z,20.55
2023-05-02T06:53:43.673Z,18.40
2023-05-02T06:56:34.459Z,19.60
2023-05-02T06:59:21.748Z,19.10
2023-05-02T07:02:09.309Z,20.25
2023-05-02T07:04:56.917Z,18.27
2023-05-02T07:07:44.865Z,18.02
2023-05-02T07:10:32.472Z,16.57
2023-05-02T07:13:19.843Z,16.23
2023-05-02T07:16:07.923Z,17.57
2023-05-02T07:18:55.736Z,17.10
2023-05-02T07:21:43.162Z,16.05
2023-05-02T07:24:30.594Z,16.40
2023-05-02T07:27:18.028Z,17.85
2023-05-02T07:30:06.919Z,16.60
2023-05-02T07:32:54.341Z,16.12
2023-05-02T07:35:41.779Z,16.52
2023-05-02T07:38:29.255Z,15.93
2023-05-02T07:41:16.738Z,15.65
2023-05-02T07:44:04.077Z,14.50
2023-05-02T07:46:51.535Z,13.72
2023-05-02T07:49:38.819Z,14.58
2023-05-02T07:52:27.145Z,14.75
2023-05-02T07:55:15.062Z,13.85
2023-05-02T07:58:02.029Z,13.53
2023-05-02T08:00:50.444Z,12.13
2023-05-02T08:03:39.614Z,12.47
2023-05-02T08:06:27.205Z,12.82
2023-05-02T08:09:14.550Z,11.45
2023-05-02T08:12:03.283Z,12.55
2023-05-02T08:14:50.384Z,11.85
2023-05-02T08:17:37.784Z,11.65
2023-05-02T08:20:25.596Z,12.82
2023-05-02T08:23:13.007Z,12.15
2023-05-02T08:26:00.687Z,14.47
2023-05-02T08:28:47.957Z,13.90
2023-05-02T08:31:35.853Z,14.10
2023-05-02T08:34:22.822Z,15.08
2023-05-02T08:37:12.051Z,13.88
2023-05-02T08:39:59.402Z,14.73
2023-05-02T08:42:47.268Z,15.05
2023-05-02T08:45:39.726Z,14.58
2023-05-02T08:48:28.132Z,15.18
2023-05-02T08:54:04.365Z,14.73
2023-05-02T08:56:51.962Z,14.63
2023-05-02T08:59:39.208Z,14.30
2023-05-02T09:02:32.698Z,13.95
2023-05-02T09:05:23.132Z,14.68
2023-05-02T09:08:10.730Z,14.87
2023-05-02T09:10:59.383Z,12.43
2023-05-02T09:13:48.878Z,12.33
2023-05-02T09:16:40.493Z,8.15
2023-05-02T09:19:28.200Z,8.40
2023-05-02T09:22:18.224Z,8.38
2023-05-02T09:25:07.311Z,7.37
2023-05-02T09:27:56.910Z,7.55
2023-05-02T09:30:44.522Z,7.50
2023-05-02T09:33:33.691Z,7.45
2023-05-02T09:36:23.273Z,7.22
2023-05-02T09:39:16.019Z,6.75
2023-05-02T09:42:03.532Z,6.90
2023-05-02T09:44:50.807Z,6.67
2023-05-02T09:47:38.617Z,6.60
2023-05-02T09:50:37.593Z,6.17
2023-05-02T09:53:27.258Z,6.45
2023-05-02T09:56:15.175Z,6.08
2023-05-02T09:59:17.196Z,5.87
2023-05-02T10:02:07.080Z,5.37
2023-05-02T10:04:56.845Z,5.00
2023-05-02T10:07:46.081Z,5.22
2023-05-02T10:10:36.238Z,5.35
2023-05-02T10:13:27.072Z,5.22
2023-05-02T10:16:16.200Z,5.80
2023-05-02T10:19:06.867Z,6.20
2023-05-02T10:21:55.560Z,5.33
2023-05-02T10:24:43.290Z,4.40
2023-05-02T10:27:34.626Z,3.80
2023-05-02T10:30:22.970Z,2.92
2023-05-02T10:33:10.525Z,3.47
2023-05-02T10:35:58.491Z,3.83
2023-05-02T10:38:48.278Z,4.05
2023-05-02T10:41:36.460Z,3.77
2023-05-02T10:44:37.892Z,4.40
2023-05-02T10:47:27.304Z,4.25
2023-05-02T10:50:14.970Z,4.90
2023-05-02T10:53:05.417Z,4.10
2023-05-02T10:56:14.282Z,3.60
2023-05-02T10:59:04.808Z,4.08
2023-05-02T11:01:52.058Z,4.50
2023-05-02T11:05:02.683Z,4.50
2023-05-02T11:07:50.861Z,3.75
2023-05-02T11:10:38.286Z,3.45
2023-05-02T11:13:50.841Z,3.65
2023-05-02T11:17:01.285Z,3.67
2023-05-02T11:20:01.600Z,3.30
2023-05-02T11:22:49.490Z,3.20
2023-05-02T11:25:38.845Z,3.30
2023-05-02T11:28:47.592Z,3.02
2023-05-02T11:31:39.155Z,3.60
2023-05-02T11:34:26.776Z,3.65
2023-05-02T11:37:15.845Z,3.60
2023-05-02T11:40:15.954Z,3.17
2023-05-02T11:43:15.452Z,3.52
2023-05-02T11:46:03.435Z,3.17
2023-05-02T11:48:50.688Z,3.45
2023-05-02T11:51:37.897Z,3.30
2023-05-02T11:54:25.234Z,3.37
2023-05-02T11:57:13.068Z,3.45
2023-05-02T12:00:00.452Z,3.27
2023-05-02T12:02:48.859Z,3.60
2023-05-02T12:05:36.162Z,3.00
2023-05-02T12:08:26.503Z,3.47
2023-05-02T12:11:17.708Z,3.40
2023-05-02T12:14:06.382Z,3.20
2023-05-02T12:16:53.655Z,3.47
2023-05-02T12:19:41.571Z,3.50
2023-05-02T12:22:30.079Z,3.47
2023-05-02T12:25:17.776Z,3.72
2023-05-02T12:28:05.307Z,3.70
2023-05-02T12:30:53.185Z,3.83
2023-05-02T12:33:45.084Z,3.20
2023-05-02T12:36:33.998Z,2.80
2023-05-02T12:39:24.323Z,2.25
2023-05-02T12:42:16.672Z,2.50
2023-05-02T12:45:03.933Z,2.87
2023-05-02T12:47:51.441Z,2.05
2023-05-02T12:50:39.825Z,2.33
2023-05-02T12:53:47.329Z,2.80
2023-05-02T12:56:42.140Z,2.98
2023-05-02T12:59:33.540Z,3.95
2023-05-02T13:02:22.656Z,3.83
2023-05-02T13:05:16.949Z,3.62
2023-05-02T13:08:04.340Z,3.75
2023-05-02T13:10:51.436Z,3.45
2023-05-02T13:13:38.676Z,4.05
2023-05-02T13:16:26.597Z,4.03
2023-05-02T13:19:13.687Z,3.72
2023-05-02T13:22:01.122Z,4.08
2023-05-02T13:24:48.767Z,3.77
2023-05-02T13:27:36.302Z,3.10
2023-05-02T13:30:23.789Z,3.40
2023-05-02T13:33:11.328Z,3.00
2023-05-02T13:35:59.032Z,3.50
2023-05-02T13:38:46.593Z,3.00
2023-05-02T13:41:33.957Z,3.20
2023-05-02T13:44:21.193Z,3.15
2023-05-02T13:47:08.582Z,3.75
2023-05-02T13:49:56.041Z,4.95
2023-05-02T13:52:43.506Z,5.70
2023-05-02T13:55:30.909Z,5.42
2023-05-02T13:58:18.105Z,5.30
2023-05-02T14:01:05.755Z,5.55
2023-05-02T14:03:53.481Z,5.08
2023-05-02T14:06:41.068Z,5.00
2023-05-02T14:09:28.623Z,4.42
2023-05-02T14:12:16.215Z,5.15
2023-05-02T14:15:03.785Z,3.83
2023-05-02T14:17:51.403Z,4.37
2023-05-02T14:20:38.246Z,4.58
2023-05-02T14:23:25.547Z,4.10
2023-05-02T14:26:14.031Z,4.33
2023-05-02T14:29:01.788Z,4.60
2023-05-02T14:31:49.486Z,4.62
2023-05-02T14:34:36.952Z,4.22
2023-05-02T14:37:24.349Z,4.65
2023-05-02T14:40:12.337Z,4.78
2023-05-02T14:42:59.600Z,4.65
2023-05-02T14:45:47.310Z,5.25
2023-05-02T14:48:34.560Z,4.70
2023-05-02T14:51:22.059Z,5.47
2023-05-02T14:54:09.609Z,5.20
2023-05-02T14:56:57.862Z,5.15
2023-05-02T14:59:45.209Z,4.53
2023-05-02T15:02:32.629Z,5.50
2023-05-02T15:05:20.019Z,5.70
2023-05-02T15:08:07.570Z,5.42
2023-05-02T15:10:55.818Z,5.33
2023-05-02T15:13:43.287Z,4.95
2023-05-02T15:16:31.645Z,4.50
2023-05-02T15:19:19.228Z,4.15
2023-05-02T15:22:06.544Z,3.77
2023-05-02T15:24:54.128Z,3.75
2023-05-02T15:27:42.518Z,3.70
2023-05-02T15:30:29.880Z,4.45
2023-05-02T15:33:17.394Z,3.70
2023-05-02T15:36:04.817Z,3.65
2023-05-02T15:38:51.923Z,3.33
2023-05-02T15:41:39.208Z,3.70
2023-05-02T15:44:26.536Z,3.10
2023-05-02T15:47:14.243Z,2.90
2023-05-02T15:50:02.423Z,2.92
2023-05-02T15:52:49.948Z,3.35
2023-05-02T15:55:37.719Z,2.87
2023-05-02T15:58:25.363Z,2.98
2023-05-02T16:01:12.827Z,2.92
2023-05-02T16:04:00.451Z,3.80
2023-05-02T16:06:47.741Z,3.17
2023-05-02T16:09:35.219Z,2.87
2023-05-02T16:12:22.476Z,3.25
2023-05-02T16:15:10.304Z,3.62
2023-05-02T16:17:57.610Z,3.90
2023-05-02T16:20:47.050Z,4.10
2023-05-02T16:23:34.638Z,3.92
2023-05-02T16:26:24.909Z,4.30
2023-05-02T16:29:12.401Z,3.72
2023-05-02T16:32:00.069Z,3.77
2023-05-02T16:34:47.328Z,3.75
2023-05-02T16:37:35.648Z,3.52
2023-05-02T16:40:23.238Z,3.50
2023-05-02T16:43:10.725Z,3.10
2023-05-02T16:46:06.237Z,3.42
2023-05-02T16:48:53.566Z,3.15
2023-05-02T16:51:40.689Z,3.45
2023-05-02T16:54:28.290Z,2.90
2023-05-02T16:57:17.579Z,3.27
2023-05-02T17:00:05.716Z,2.98
2023-05-02T17:02:55.216Z,3.10
2023-05-02T17:05:42.777Z,2.90
2023-05-02T17:08:30.392Z,3.47
2023-05-02T17:11:18.162Z,2.65
2023-05-02T17:14:06.383Z,2.87
2023-05-02T17:16:53.675Z,2.98
2023-05-02T17:19:42.994Z,2.52
2023-05-02T17:22:30.937Z,2.70
2023-05-02T17:25:18.566Z,2.75
2023-05-02T17:28:06.095Z,2.98
2023-05-02T17:30:58.249Z,2.80
2023-05-02T17:33:46.023Z,2.58
2023-05-02T17:36:33.867Z,2.75
2023-05-02T17:39:22.535Z,2.52
2023-05-02T17:42:10.126Z,2.70
2023-05-02T17:44:57.676Z,2.70
2023-05-02T17:47:45.214Z,2.80
2023-05-02T17:50:32.760Z,2.70
2023-05-02T17:53:19.991Z,3.90
2023-05-02T17:56:07.918Z,3.65
2023-05-02T17:58:55.311Z,2.83
2023-05-02T18:01:42.547Z,2.70
2023-05-02T18:04:34.315Z,2.75
2023-05-02T18:07:23.591Z,2.80
2023-05-02T18:10:11.353Z,2.60
2023-05-02T18:12:58.820Z,2.60
2023-05-02T18:15:47.897Z,2.67
2023-05-02T18:18:36.256Z,2.42
2023-05-02T18:21:25.851Z,2.47
2023-05-02T18:24:13.369Z,2.33
2023-05-02T18:27:00.930Z,2.70
2023-05-02T18:29:48.840Z,2.47
2023-05-02T18:32:36.687Z,2.70
2023-05-02T18:35:24.147Z,2.15
2023-05-02T18:38:11.534Z,2.70
2023-05-02T18:40:59.017Z,2.95
2023-05-02T18:43:46.783Z,2.52
2023-05-02T18:46:34.318Z,2.42
2023-05-02T18:49:21.843Z,2.92
2023-05-02T18:52:09.299Z,3.30
2023-05-02T18:54:56.515Z,3.40
2023-05-02T18:57:45.160Z,3.50
2023-05-02T19:00:33.774Z,3.45
2023-05-02T19:03:21.945Z,3.05
2023-05-02T19:06:09.566Z,2.83
2023-05-02T19:08:56.760Z,3.20
2023-05-02T19:11:44.255Z,3.20
2023-05-02T19:14:33.380Z,2.70
2023-05-02T19:17:22.413Z,2.55
2023-05-02T19:20:12.142Z,3.02
2023-05-02T19:23:15.305Z,2.83
2023-05-02T19:25:48.958Z,3.47
2023-05-02T19:28:36.196Z,3.35
2023-05-02T19:31:23.630Z,3.30
2023-05-02T19:34:10.992Z,3.58
2023-05-02T19:36:58.526Z,3.40
2023-05-02T19:39:45.892Z,3.52
2023-05-02T19:42:33.375Z,3.27
2023-05-02T19:45:20.943Z,3.40
2023-05-02T19:48:08.625Z,3.45
2023-05-02T19:50:58.529Z,3.30
2023-05-02T19:53:45.701Z,3.83
2023-05-02T19:56:32.996Z,3.42
2023-05-02T19:59:20.695Z,3.50
2023-05-02T20:02:09.321Z,3.67
2023-05-02T20:04:56.424Z,2.98
2023-05-02T20:07:44.968Z,3.90
2023-05-02T20:10:32.483Z,3.02
2023-05-02T20:13:19.911Z,3.20
2023-05-02T20:16:10.509Z,3.75
2023-05-02T20:18:58.654Z,3.67
2023-05-02T20:21:45.812Z,3.40
2023-05-02T20:24:33.104Z,3.35
2023-05-02T20:27:20.427Z,3.35
2023-05-02T20:30:09.357Z,3.25
2023-05-02T20:32:59.406Z,3.35
2023-05-02T20:35:45.677Z,3.22
2023-05-02T20:38:32.977Z,3.00
2023-05-02T20:41:21.265Z,3.47
2023-05-02T20:44:08.463Z,3.37
2023-05-02T20:46:55.722Z,3.25
2023-05-02T20:49:42.732Z,3.27
2023-05-02T20:52:29.924Z,3.05
2023-05-02T20:55:17.975Z,3.65
2023-05-02T20:58:05.328Z,3.40
2023-05-02T21:00:52.689Z,3.70
2023-05-02T21:03:41.221Z,3.65
2023-05-02T21:06:28.999Z,3.75
2023-05-02T21:09:17.736Z,4.20
2023-05-02T21:12:07.762Z,3.60
2023-05-02T21:14:55.585Z,3.90
2023-05-02T21:17:43.233Z,3.90
2023-05-02T21:20:30.755Z,4.03
2023-05-02T21:23:18.477Z,3.65
2023-05-02T21:26:06.024Z,4.17
2023-05-02T21:28:53.543Z,3.92
2023-05-02T21:31:41.073Z,4.00
2023-05-02T21:34:28.327Z,4.15
2023-05-02T21:37:15.639Z,3.98
2023-05-02T21:40:04.182Z,4.20
2023-05-02T21:42:51.918Z,3.90
2023-05-02T21:45:45.378Z,4.20
2023-05-02T21:48:33.867Z,3.92
2023-05-02T21:51:21.344Z,4.37
2023-05-02T21:54:08.874Z,4.33
2023-05-02T21:56:56.168Z,4.30
2023-05-02T21:59:43.748Z,4.35
2023-05-02T22:02:31.199Z,4.65
2023-05-02T22:05:18.503Z,4.58
2023-05-02T22:08:07.767Z,4.33
2023-05-02T22:10:55.001Z,4.55
2023-05-02T22:13:42.286Z,4.85
2023-05-02T22:16:29.841Z,4.70
2023-05-02T22:19:17.591Z,4.42
2023-05-02T22:22:05.366Z,4.30
2023-05-02T22:24:52.805Z,4.67
2023-05-02T22:27:39.972Z,5.00
2023-05-02T22:30:27.298Z,4.78
2023-05-02T22:33:14.967Z,4.78
2023-05-02T22:36:02.414Z,4.60
2023-05-02T22:38:49.881Z,5.08
2023-05-02T22:41:37.462Z,4.50
2023-05-02T22:44:24.830Z,4.62
2023-05-02T22:47:12.462Z,4.83
2023-05-02T22:50:00.151Z,4.75
2023-05-02T22:52:48.939Z,4.83
2023-05-02T22:55:38.778Z,5.00
2023-05-02T22:58:25.989Z,4.72
2023-05-02T23:01:13.561Z,5.33
2023-05-02T23:04:01.075Z,4.62
2023-05-02T23:06:48.694Z,5.75
2023-05-02T23:09:35.789Z,5.00
2023-05-02T23:12:23.043Z,5.08
2023-05-02T23:15:10.998Z,5.28
2023-05-02T23:17:58.513Z,5.92
2023-05-02T23:20:45.853Z,5.20
2023-05-02T23:23:33.103Z,5.47
2023-05-02T23:26:20.953Z,5.03
2023-05-02T23:29:08.229Z,5.00
2023-05-02T23:31:55.664Z,5.25
2023-05-02T23:34:43.391Z,5.25
2023-05-02T23:37:30.992Z,4.97
2023-05-02T23:40:18.372Z,5.47
2023-05-02T23:43:07.351Z,5.12
2023-05-02T23:45:54.803Z,5.17
2023-05-02T23:48:42.425Z,5.33
2023-05-02T23:51:31.507Z,4.92
2023-05-02T23:54:19.122Z,5.03
2023-05-02T23:57:08.028Z,5.37
2023-05-02T23:59:55.885Z,5.25
